sensor_id;sensor_type;location;lat;lon;timestamp;P1;durP1;ratioP1;P2;durP2;ratioP2
17173;SDS011;8702;48.130;-1.696;2022-11-15T00:00:54;8.93;;;2.42;;
17173;SDS011;8702;48.130;-1.696;2022-11-15T00:03:21;7.40;;;2.53;;
17173;SDS011;8702;48.130;-1.696;2022-11-15T00:05:50;8.15;;;2.63;;
17173;SDS011;8702;48.130;-1.696;2022-11-15T00:08:17;8.75;;;2.20;;
17173;SDS011;8702;48.130;-1.696;2022-11-15T00:10:53;11.68;;;2.75;;
17173;SDS011;8702;48.130;-1.696;2022-11-15T00:13:20;6.68;;;2.40;;
17173;SDS011;8702;48.130;-1.696;2022-11-15T00:15:49;8.85;;;2.50;;
17173;SDS011;8702;48.130;-1.696;2022-11-15T00:18:16;8.05;;;2.58;;
17173;SDS011;8702;48.130;-1.696;2022-11-15T00:20:43;7.43;;;2.70;;
17173;SDS011;8702;48.130;-1.696;2022-11-15T00:23:10;8.93;;;2.53;;
17173;SDS011;8702;48.130;-1.696;2022-11-15T00:25:37;8.82;;;2.45;;
17173;SDS011;8702;48.130;-1.696;2022-11-15T00:28:04;5.78;;;2.30;;
17173;SDS011;8702;48.130;-1.696;2022-11-15T00:30:31;5.85;;;2.53;;
17173;SDS011;8702;48.130;-1.696;2022-11-15T00:33:02;8.35;;;2.70;;
17173;SDS011;8702;48.130;-1.696;2022-11-15T00:35:31;8.13;;;2.70;;
17173;SDS011;8702;48.130;-1.696;2022-11-15T00:37:58;8.50;;;2.90;;
17173;SDS011;8702;48.130;-1.696;2022-11-15T00:40:25;6.32;;;2.40;;
17173;SDS011;8702;48.130;-1.696;2022-11-15T00:42:53;8.32;;;2.30;;
17173;SDS011;8702;48.130;-1.696;2022-11-15T00:45:20;9.32;;;2.53;;
17173;SDS011;8702;48.130;-1.696;2022-11-15T00:47:47;8.90;;;2.97;;
17173;SDS011;8702;48.130;-1.696;2022-11-15T00:50:15;8.88;;;2.60;;
17173;SDS011;8702;48.130;-1.696;2022-11-15T00:52:43;7.70;;;2.58;;
17173;SDS011;8702;48.130;-1.696;2022-11-15T00:55:12;7.70;;;2.42;;
17173;SDS011;8702;48.130;-1.696;2022-11-15T00:57:43;10.32;;;2.70;;
17173;SDS011;8702;48.130;-1.696;2022-11-15T01:00:10;8.90;;;2.60;;
17173;SDS011;8702;48.130;-1.696;2022-11-15T01:02:38;7.80;;;2.40;;
17173;SDS011;8702;48.130;-1.696;2022-11-15T01:05:05;10.20;;;3.08;;
17173;SDS011;8702;48.130;-1.696;2022-11-15T01:07:34;6.60;;;2.23;;
17173;SDS011;8702;48.130;-1.696;2022-11-15T01:10:01;8.43;;;2.55;;
17173;SDS011;8702;48.130;-1.696;2022-11-15T01:12:28;9.50;;;2.50;;
17173;SDS011;8702;48.130;-1.696;2022-11-15T01:14:55;9.00;;;2.47;;
17173;SDS011;8702;48.130;-1.696;2022-11-15T01:17:25;9.85;;;2.70;;
17173;SDS011;8702;48.130;-1.696;2022-11-15T01:19:52;8.18;;;2.40;;
17173;SDS011;8702;48.130;-1.696;2022-11-15T01:22:19;9.27;;;2.55;;
17173;SDS011;8702;48.130;-1.696;2022-11-15T01:24:47;6.00;;;1.95;;
17173;SDS011;8702;48.130;-1.696;2022-11-15T01:27:15;10.07;;;2.40;;
17173;SDS011;8702;48.130;-1.696;2022-11-15T01:29:43;9.82;;;2.70;;
17173;SDS011;8702;48.130;-1.696;2022-11-15T01:32:10;7.85;;;2.60;;
17173;SDS011;8702;48.130;-1.696;2022-11-15T01:34:37;10.07;;;2.22;;
17173;SDS011;8702;48.130;-1.696;2022-11-15T01:37:04;9.60;;;2.20;;
17173;SDS011;8702;48.130;-1.696;2022-11-15T01:39:31;7.90;;;2.40;;
17173;SDS011;8702;48.130;-1.696;2022-11-15T01:41:59;9.65;;;2.50;;
17173;SDS011;8702;48.130;-1.696;2022-11-15T01:44:34;8.75;;;2.28;;
17173;SDS011;8702;48.130;-1.696;2022-11-15T01:47:09;9.32;;;2.22;;
17173;SDS011;8702;48.130;-1.696;2022-11-15T01:49:40;9.93;;;2.13;;
17173;SDS011;8702;48.130;-1.696;2022-11-15T01:52:13;10.05;;;2.42;;
17173;SDS011;8702;48.130;-1.696;2022-11-15T01:54:43;7.63;;;2.13;;
17173;SDS011;8702;48.130;-1.696;2022-11-15T01:57:13;8.00;;;2.00;;
17173;SDS011;8702;48.130;-1.696;2022-11-15T01:59:40;9.77;;;2.23;;
17173;SDS011;8702;48.130;-1.696;2022-11-15T02:02:09;9.52;;;2.17;;
17173;SDS011;8702;48.130;-1.696;2022-11-15T02:04:37;8.15;;;2.33;;
17173;SDS011;8702;48.130;-1.696;2022-11-15T02:07:10;8.77;;;2.43;;
17173;SDS011;8702;48.130;-1.696;2022-11-15T02:09:40;7.17;;;2.20;;
17173;SDS011;8702;48.130;-1.696;2022-11-15T02:12:08;8.93;;;2.10;;
17173;SDS011;8702;48.130;-1.696;2022-11-15T02:14:39;7.40;;;2.40;;
17173;SDS011;8702;48.130;-1.696;2022-11-15T02:17:13;7.10;;;1.90;;
17173;SDS011;8702;48.130;-1.696;2022-11-15T02:20:03;6.30;;;2.13;;
17173;SDS011;8702;48.130;-1.696;2022-11-15T02:22:51;9.60;;;2.00;;
17173;SDS011;8702;48.130;-1.696;2022-11-15T02:25:37;6.90;;;2.08;;
17173;SDS011;8702;48.130;-1.696;2022-11-15T02:28:20;5.72;;;2.00;;
17173;SDS011;8702;48.130;-1.696;2022-11-15T02:31:04;7.20;;;2.10;;
17173;SDS011;8702;48.130;-1.696;2022-11-15T02:33:41;7.68;;;2.20;;
17173;SDS011;8702;48.130;-1.696;2022-11-15T02:36:18;7.15;;;2.28;;
17173;SDS011;8702;48.130;-1.696;2022-11-15T02:38:57;9.40;;;2.53;;
17173;SDS011;8702;48.130;-1.696;2022-11-15T02:41:30;8.35;;;2.05;;
17173;SDS011;8702;48.130;-1.696;2022-11-15T02:44:01;9.18;;;2.17;;
17173;SDS011;8702;48.130;-1.696;2022-11-15T02:46:34;8.05;;;2.22;;
17173;SDS011;8702;48.130;-1.696;2022-11-15T02:49:22;8.02;;;2.30;;
17173;SDS011;8702;48.130;-1.696;2022-11-15T02:51:51;7.55;;;2.20;;
17173;SDS011;8702;48.130;-1.696;2022-11-15T02:54:21;6.53;;;2.08;;
17173;SDS011;8702;48.130;-1.696;2022-11-15T02:56:49;7.43;;;2.33;;
17173;SDS011;8702;48.130;-1.696;2022-11-15T02:59:23;9.68;;;2.40;;
17173;SDS011;8702;48.130;-1.696;2022-11-15T03:02:11;7.73;;;1.87;;
17173;SDS011;8702;48.130;-1.696;2022-11-15T03:04:52;8.73;;;2.35;;
17173;SDS011;8702;48.130;-1.696;2022-11-15T03:07:23;7.32;;;2.00;;
17173;SDS011;8702;48.130;-1.696;2022-11-15T03:09:57;7.47;;;1.98;;
17173;SDS011;8702;48.130;-1.696;2022-11-15T03:12:30;9.65;;;2.35;;
17173;SDS011;8702;48.130;-1.696;2022-11-15T03:15:04;6.82;;;1.92;;
17173;SDS011;8702;48.130;-1.696;2022-11-15T03:17:37;10.60;;;2.17;;
17173;SDS011;8702;48.130;-1.696;2022-11-15T03:20:09;9.30;;;2.10;;
17173;SDS011;8702;48.130;-1.696;2022-11-15T03:22:39;6.53;;;2.00;;
17173;SDS011;8702;48.130;-1.696;2022-11-15T03:25:10;7.38;;;1.90;;
17173;SDS011;8702;48.130;-1.696;2022-11-15T03:27:41;7.68;;;2.10;;
17173;SDS011;8702;48.130;-1.696;2022-11-15T03:30:11;6.47;;;1.80;;
17173;SDS011;8702;48.130;-1.696;2022-11-15T03:32:41;9.63;;;2.42;;
17173;SDS011;8702;48.130;-1.696;2022-11-15T03:35:14;7.43;;;2.20;;
17173;SDS011;8702;48.130;-1.696;2022-11-15T03:37:46;9.50;;;2.03;;
17173;SDS011;8702;48.130;-1.696;2022-11-15T03:40:17;8.63;;;2.00;;
17173;SDS011;8702;48.130;-1.696;2022-11-15T03:42:51;9.37;;;2.20;;
17173;SDS011;8702;48.130;-1.696;2022-11-15T03:45:26;7.23;;;1.90;;
17173;SDS011;8702;48.130;-1.696;2022-11-15T03:47:58;7.18;;;2.08;;
17173;SDS011;8702;48.130;-1.696;2022-11-15T03:50:28;7.97;;;2.27;;
17173;SDS011;8702;48.130;-1.696;2022-11-15T03:52:56;9.98;;;2.45;;
17173;SDS011;8702;48.130;-1.696;2022-11-15T03:55:24;8.75;;;2.00;;
17173;SDS011;8702;48.130;-1.696;2022-11-15T03:57:53;8.32;;;2.08;;
17173;SDS011;8702;48.130;-1.696;2022-11-15T04:00:23;5.83;;;1.90;;
17173;SDS011;8702;48.130;-1.696;2022-11-15T04:02:50;8.32;;;2.03;;
17173;SDS011;8702;48.130;-1.696;2022-11-15T04:05:18;9.27;;;2.13;;
17173;SDS011;8702;48.130;-1.696;2022-11-15T04:07:45;8.80;;;2.27;;
17173;SDS011;8702;48.130;-1.696;2022-11-15T04:10:12;7.80;;;1.98;;
17173;SDS011;8702;48.130;-1.696;2022-11-15T04:12:43;12.55;;;2.20;;
17173;SDS011;8702;48.130;-1.696;2022-11-15T04:15:13;8.20;;;2.13;;
17173;SDS011;8702;48.130;-1.696;2022-11-15T04:17:42;7.82;;;2.42;;
17173;SDS011;8702;48.130;-1.696;2022-11-15T04:20:11;5.50;;;2.05;;
17173;SDS011;8702;48.130;-1.696;2022-11-15T04:23:00;7.80;;;2.00;;
17173;SDS011;8702;48.130;-1.696;2022-11-15T04:25:45;9.25;;;1.95;;
17173;SDS011;8702;48.130;-1.696;2022-11-15T04:28:15;7.07;;;1.83;;
17173;SDS011;8702;48.130;-1.696;2022-11-15T04:30:42;7.85;;;2.00;;
17173;SDS011;8702;48.130;-1.696;2022-11-15T04:33:09;8.32;;;1.85;;
17173;SDS011;8702;48.130;-1.696;2022-11-15T04:35:36;7.25;;;1.67;;
17173;SDS011;8702;48.130;-1.696;2022-11-15T04:38:06;8.93;;;2.13;;
17173;SDS011;8702;48.130;-1.696;2022-11-15T04:40:34;5.65;;;1.95;;
17173;SDS011;8702;48.130;-1.696;2022-11-15T04:43:01;9.45;;;2.15;;
17173;SDS011;8702;48.130;-1.696;2022-11-15T04:45:28;8.98;;;2.00;;
17173;SDS011;8702;48.130;-1.696;2022-11-15T04:47:55;7.45;;;1.90;;
17173;SDS011;8702;48.130;-1.696;2022-11-15T04:50:22;9.02;;;2.20;;
17173;SDS011;8702;48.130;-1.696;2022-11-15T04:52:50;9.48;;;2.53;;
17173;SDS011;8702;48.130;-1.696;2022-11-15T04:55:19;7.50;;;1.80;;
17173;SDS011;8702;48.130;-1.696;2022-11-15T04:57:47;8.02;;;2.13;;
17173;SDS011;8702;48.130;-1.696;2022-11-15T05:00:14;8.70;;;2.10;;
17173;SDS011;8702;48.130;-1.696;2022-11-15T05:02:42;7.72;;;2.10;;
17173;SDS011;8702;48.130;-1.696;2022-11-15T05:05:26;11.10;;;2.13;;
17173;SDS011;8702;48.130;-1.696;2022-11-15T05:07:53;9.17;;;2.30;;
17173;SDS011;8702;48.130;-1.696;2022-11-15T05:10:22;5.73;;;1.77;;
17173;SDS011;8702;48.130;-1.696;2022-11-15T05:12:49;7.47;;;1.90;;
17173;SDS011;8702;48.130;-1.696;2022-11-15T05:15:16;7.80;;;2.00;;
17173;SDS011;8702;48.130;-1.696;2022-11-15T05:17:42;6.15;;;1.77;;
17173;SDS011;8702;48.130;-1.696;2022-11-15T05:20:10;6.32;;;1.70;;
17173;SDS011;8702;48.130;-1.696;2022-11-15T05:22:37;9.02;;;2.10;;
17173;SDS011;8702;48.130;-1.696;2022-11-15T05:25:05;8.25;;;2.10;;
17173;SDS011;8702;48.130;-1.696;2022-11-15T05:27:34;9.65;;;1.98;;
17173;SDS011;8702;48.130;-1.696;2022-11-15T05:30:01;7.03;;;1.92;;
17173;SDS011;8702;48.130;-1.696;2022-11-15T05:32:30;9.63;;;2.07;;
17173;SDS011;8702;48.130;-1.696;2022-11-15T05:34:57;6.50;;;2.00;;
17173;SDS011;8702;48.130;-1.696;2022-11-15T05:37:24;9.32;;;2.17;;
17173;SDS011;8702;48.130;-1.696;2022-11-15T05:39:51;8.00;;;2.10;;
17173;SDS011;8702;48.130;-1.696;2022-11-15T05:42:18;8.02;;;2.00;;
17173;SDS011;8702;48.130;-1.696;2022-11-15T05:44:48;7.10;;;2.20;;
17173;SDS011;8702;48.130;-1.696;2022-11-15T05:47:22;7.65;;;2.45;;
17173;SDS011;8702;48.130;-1.696;2022-11-15T05:49:52;8.02;;;1.83;;
17173;SDS011;8702;48.130;-1.696;2022-11-15T05:52:21;6.75;;;2.05;;
17173;SDS011;8702;48.130;-1.696;2022-11-15T05:54:51;8.88;;;2.33;;
17173;SDS011;8702;48.130;-1.696;2022-11-15T05:57:19;6.80;;;1.90;;
17173;SDS011;8702;48.130;-1.696;2022-11-15T05:59:47;7.60;;;1.90;;
17173;SDS011;8702;48.130;-1.696;2022-11-15T06:02:14;7.68;;;1.85;;
17173;SDS011;8702;48.130;-1.696;2022-11-15T06:04:44;9.80;;;2.17;;
17173;SDS011;8702;48.130;-1.696;2022-11-15T06:07:11;7.68;;;2.00;;
17173;SDS011;8702;48.130;-1.696;2022-11-15T06:09:39;8.93;;;2.08;;
17173;SDS011;8702;48.130;-1.696;2022-11-15T06:12:06;6.95;;;2.08;;
17173;SDS011;8702;48.130;-1.696;2022-11-15T06:14:33;8.07;;;2.17;;
17173;SDS011;8702;48.130;-1.696;2022-11-15T06:17:01;7.43;;;2.10;;
17173;SDS011;8702;48.130;-1.696;2022-11-15T06:19:28;5.20;;;1.90;;
17173;SDS011;8702;48.130;-1.696;2022-11-15T06:21:57;7.45;;;2.17;;
17173;SDS011;8702;48.130;-1.696;2022-11-15T06:24:24;4.67;;;1.90;;
17173;SDS011;8702;48.130;-1.696;2022-11-15T06:26:51;4.47;;;2.00;;
17173;SDS011;8702;48.130;-1.696;2022-11-15T06:29:20;6.63;;;1.88;;
17173;SDS011;8702;48.130;-1.696;2022-11-15T06:31:46;4.97;;;1.95;;
17173;SDS011;8702;48.130;-1.696;2022-11-15T06:34:16;7.25;;;2.15;;
17173;SDS011;8702;48.130;-1.696;2022-11-15T06:36:43;9.75;;;2.47;;
17173;SDS011;8702;48.130;-1.696;2022-11-15T06:39:10;7.05;;;2.20;;
17173;SDS011;8702;48.130;-1.696;2022-11-15T06:41:37;7.70;;;1.90;;
17173;SDS011;8702;48.130;-1.696;2022-11-15T06:44:04;8.40;;;1.90;;
17173;SDS011;8702;48.130;-1.696;2022-11-15T06:46:31;8.00;;;2.15;;
17173;SDS011;8702;48.130;-1.696;2022-11-15T06:48:59;7.63;;;2.55;;
17173;SDS011;8702;48.130;-1.696;2022-11-15T06:51:27;9.02;;;2.30;;
17173;SDS011;8702;48.130;-1.696;2022-11-15T06:53:55;8.20;;;2.35;;
17173;SDS011;8702;48.130;-1.696;2022-11-15T06:56:22;8.30;;;2.42;;
17173;SDS011;8702;48.130;-1.696;2022-11-15T06:58:49;8.05;;;2.65;;
17173;SDS011;8702;48.130;-1.696;2022-11-15T07:01:17;5.53;;;2.23;;
17173;SDS011;8702;48.130;-1.696;2022-11-15T07:03:44;7.50;;;2.30;;
17173;SDS011;8702;48.130;-1.696;2022-11-15T07:06:11;6.05;;;2.40;;
17173;SDS011;8702;48.130;-1.696;2022-11-15T07:08:39;7.15;;;2.40;;
17173;SDS011;8702;48.130;-1.696;2022-11-15T07:11:07;7.72;;;2.42;;
17173;SDS011;8702;48.130;-1.696;2022-11-15T07:13:35;8.43;;;2.17;;
17173;SDS011;8702;48.130;-1.696;2022-11-15T07:16:03;5.20;;;2.10;;
17173;SDS011;8702;48.130;-1.696;2022-11-15T07:18:33;7.53;;;2.50;;
17173;SDS011;8702;48.130;-1.696;2022-11-15T07:21:01;5.80;;;1.95;;
17173;SDS011;8702;48.130;-1.696;2022-11-15T07:23:29;5.80;;;2.00;;
17173;SDS011;8702;48.130;-1.696;2022-11-15T07:25:57;5.45;;;2.05;;
17173;SDS011;8702;48.130;-1.696;2022-11-15T07:28:26;4.95;;;2.03;;
17173;SDS011;8702;48.130;-1.696;2022-11-15T07:30:53;4.97;;;1.73;;
17173;SDS011;8702;48.130;-1.696;2022-11-15T07:33:20;4.93;;;1.80;;
17173;SDS011;8702;48.130;-1.696;2022-11-15T07:35:48;4.70;;;1.90;;
17173;SDS011;8702;48.130;-1.696;2022-11-15T07:38:15;5.22;;;1.70;;
17173;SDS011;8702;48.130;-1.696;2022-11-15T07:40:45;5.63;;;2.00;;
17173;SDS011;8702;48.130;-1.696;2022-11-15T07:43:14;5.93;;;1.85;;
17173;SDS011;8702;48.130;-1.696;2022-11-15T07:45:42;4.63;;;1.90;;
17173;SDS011;8702;48.130;-1.696;2022-11-15T07:48:09;4.45;;;2.00;;
17173;SDS011;8702;48.130;-1.696;2022-11-15T07:50:36;4.68;;;1.83;;
17173;SDS011;8702;48.130;-1.696;2022-11-15T07:53:07;6.63;;;2.10;;
17173;SDS011;8702;48.130;-1.696;2022-11-15T07:55:35;7.35;;;2.42;;
17173;SDS011;8702;48.130;-1.696;2022-11-15T07:58:02;4.10;;;1.73;;
17173;SDS011;8702;48.130;-1.696;2022-11-15T08:00:32;5.72;;;1.92;;
17173;SDS011;8702;48.130;-1.696;2022-11-15T08:03:03;4.40;;;1.95;;
17173;SDS011;8702;48.130;-1.696;2022-11-15T08:05:30;5.82;;;1.60;;
17173;SDS011;8702;48.130;-1.696;2022-11-15T08:07:58;3.92;;;1.80;;
17173;SDS011;8702;48.130;-1.696;2022-11-15T08:10:25;3.88;;;1.70;;
17173;SDS011;8702;48.130;-1.696;2022-11-15T08:12:59;3.92;;;1.70;;
17173;SDS011;8702;48.130;-1.696;2022-11-15T08:15:27;4.88;;;2.05;;
17173;SDS011;8702;48.130;-1.696;2022-11-15T08:17:56;4.60;;;1.80;;
17173;SDS011;8702;48.130;-1.696;2022-11-15T08:20:24;4.70;;;1.70;;
17173;SDS011;8702;48.130;-1.696;2022-11-15T08:22:51;3.17;;;1.80;;
17173;SDS011;8702;48.130;-1.696;2022-11-15T08:25:18;3.60;;;1.73;;
17173;SDS011;8702;48.130;-1.696;2022-11-15T08:27:46;3.03;;;1.40;;
17173;SDS011;8702;48.130;-1.696;2022-11-15T08:30:13;2.93;;;1.20;;
17173;SDS011;8702;48.130;-1.696;2022-11-15T08:32:41;3.73;;;1.40;;
17173;SDS011;8702;48.130;-1.696;2022-11-15T08:35:09;2.17;;;1.10;;
17173;SDS011;8702;48.130;-1.696;2022-11-15T08:37:36;2.53;;;1.27;;
17173;SDS011;8702;48.130;-1.696;2022-11-15T08:40:04;3.50;;;1.45;;
17173;SDS011;8702;48.130;-1.696;2022-11-15T08:42:32;3.00;;;1.20;;
17173;SDS011;8702;48.130;-1.696;2022-11-15T08:44:59;2.78;;;1.20;;
17173;SDS011;8702;48.130;-1.696;2022-11-15T08:47:26;1.35;;;0.90;;
17173;SDS011;8702;48.130;-1.696;2022-11-15T08:49:53;2.33;;;1.10;;
17173;SDS011;8702;48.130;-1.696;2022-11-15T08:52:21;2.17;;;1.00;;
17173;SDS011;8702;48.130;-1.696;2022-11-15T08:54:48;2.45;;;1.10;;
17173;SDS011;8702;48.130;-1.696;2022-11-15T08:57:15;3.05;;;1.15;;
17173;SDS011;8702;48.130;-1.696;2022-11-15T08:59:42;3.15;;;1.17;;
17173;SDS011;8702;48.130;-1.696;2022-11-15T09:02:11;3.20;;;1.50;;
17173;SDS011;8702;48.130;-1.696;2022-11-15T09:04:39;4.38;;;1.10;;
17173;SDS011;8702;48.130;-1.696;2022-11-15T09:07:07;3.00;;;1.40;;
17173;SDS011;8702;48.130;-1.696;2022-11-15T09:09:36;3.22;;;1.20;;
17173;SDS011;8702;48.130;-1.696;2022-11-15T09:12:03;4.15;;;1.48;;
17173;SDS011;8702;48.130;-1.696;2022-11-15T09:14:31;4.70;;;1.40;;
17173;SDS011;8702;48.130;-1.696;2022-11-15T09:16:58;3.92;;;1.50;;
17173;SDS011;8702;48.130;-1.696;2022-11-15T09:19:26;4.20;;;1.40;;
17173;SDS011;8702;48.130;-1.696;2022-11-15T09:21:53;4.78;;;1.65;;
17173;SDS011;8702;48.130;-1.696;2022-11-15T09:24:20;4.32;;;1.58;;
17173;SDS011;8702;48.130;-1.696;2022-11-15T09:26:50;4.68;;;1.75;;
17173;SDS011;8702;48.130;-1.696;2022-11-15T09:29:18;5.10;;;1.42;;
17173;SDS011;8702;48.130;-1.696;2022-11-15T09:31:45;5.85;;;1.55;;
17173;SDS011;8702;48.130;-1.696;2022-11-15T09:34:12;6.28;;;1.60;;
17173;SDS011;8702;48.130;-1.696;2022-11-15T09:36:41;5.10;;;1.65;;
17173;SDS011;8702;48.130;-1.696;2022-11-15T09:39:08;5.85;;;1.90;;
17173;SDS011;8702;48.130;-1.696;2022-11-15T09:41:48;6.22;;;1.90;;
17173;SDS011;8702;48.130;-1.696;2022-11-15T09:44:28;4.82;;;1.80;;
17173;SDS011;8702;48.130;-1.696;2022-11-15T09:47:27;6.68;;;2.05;;
17173;SDS011;8702;48.130;-1.696;2022-11-15T09:50:22;6.57;;;1.85;;
17173;SDS011;8702;48.130;-1.696;2022-11-15T09:52:58;4.88;;;1.80;;
17173;SDS011;8702;48.130;-1.696;2022-11-15T09:55:27;6.30;;;2.03;;
17173;SDS011;8702;48.130;-1.696;2022-11-15T09:58:05;5.97;;;1.98;;
17173;SDS011;8702;48.130;-1.696;2022-11-15T10:00:42;9.18;;;2.13;;
17173;SDS011;8702;48.130;-1.696;2022-11-15T10:03:18;6.03;;;2.00;;
17173;SDS011;8702;48.130;-1.696;2022-11-15T10:05:51;4.30;;;1.70;;
17173;SDS011;8702;48.130;-1.696;2022-11-15T10:08:40;5.82;;;1.88;;
17173;SDS011;8702;48.130;-1.696;2022-11-15T10:11:15;5.28;;;1.90;;
17173;SDS011;8702;48.130;-1.696;2022-11-15T10:13:47;7.13;;;2.08;;
17173;SDS011;8702;48.130;-1.696;2022-11-15T10:16:20;4.07;;;1.60;;
17173;SDS011;8702;48.130;-1.696;2022-11-15T10:19:07;5.25;;;1.90;;
17173;SDS011;8702;48.130;-1.696;2022-11-15T10:21:45;5.70;;;1.80;;
17173;SDS011;8702;48.130;-1.696;2022-11-15T10:24:19;6.57;;;2.10;;
17173;SDS011;8702;48.130;-1.696;2022-11-15T10:26:53;4.50;;;1.92;;
17173;SDS011;8702;48.130;-1.696;2022-11-15T10:29:22;6.57;;;2.00;;
17173;SDS011;8702;48.130;-1.696;2022-11-15T10:31:50;6.85;;;1.90;;
17173;SDS011;8702;48.130;-1.696;2022-11-15T10:34:18;6.25;;;1.80;;
17173;SDS011;8702;48.130;-1.696;2022-11-15T10:36:46;6.95;;;2.35;;
17173;SDS011;8702;48.130;-1.696;2022-11-15T10:39:20;6.03;;;2.30;;
17173;SDS011;8702;48.130;-1.696;2022-11-15T10:41:47;6.85;;;2.15;;
17173;SDS011;8702;48.130;-1.696;2022-11-15T10:44:18;6.95;;;2.00;;
17173;SDS011;8702;48.130;-1.696;2022-11-15T10:47:03;8.32;;;2.30;;
17173;SDS011;8702;48.130;-1.696;2022-11-15T10:49:31;7.35;;;2.10;;
17173;SDS011;8702;48.130;-1.696;2022-11-15T10:51:59;8.18;;;2.60;;
17173;SDS011;8702;48.130;-1.696;2022-11-15T10:54:29;8.55;;;2.53;;
17173;SDS011;8702;48.130;-1.696;2022-11-15T10:57:00;9.93;;;2.40;;
17173;SDS011;8702;48.130;-1.696;2022-11-15T10:59:35;12.23;;;3.03;;
17173;SDS011;8702;48.130;-1.696;2022-11-15T11:05:03;8.90;;;2.70;;
17173;SDS011;8702;48.130;-1.696;2022-11-15T11:07:33;11.80;;;3.00;;
17173;SDS011;8702;48.130;-1.696;2022-11-15T11:10:03;10.98;;;2.65;;
17173;SDS011;8702;48.130;-1.696;2022-11-15T11:12:43;11.82;;;2.95;;
17173;SDS011;8702;48.130;-1.696;2022-11-15T11:15:12;10.83;;;2.90;;
17173;SDS011;8702;48.130;-1.696;2022-11-15T11:17:48;13.90;;;3.45;;
17173;SDS011;8702;48.130;-1.696;2022-11-15T11:20:21;11.00;;;2.92;;
17173;SDS011;8702;48.130;-1.696;2022-11-15T11:25:48;9.82;;;2.90;;
17173;SDS011;8702;48.130;-1.696;2022-11-15T11:28:25;10.52;;;2.60;;
17173;SDS011;8702;48.130;-1.696;2022-11-15T11:31:04;13.07;;;2.97;;
17173;SDS011;8702;48.130;-1.696;2022-11-15T11:33:40;13.82;;;2.95;;
17173;SDS011;8702;48.130;-1.696;2022-11-15T11:36:15;11.75;;;2.83;;
17173;SDS011;8702;48.130;-1.696;2022-11-15T11:38:52;11.10;;;3.38;;
17173;SDS011;8702;48.130;-1.696;2022-11-15T11:41:30;14.32;;;3.25;;
17173;SDS011;8702;48.130;-1.696;2022-11-15T11:44:14;12.40;;;3.25;;
17173;SDS011;8702;48.130;-1.696;2022-11-15T11:46:54;15.55;;;3.53;;
17173;SDS011;8702;48.130;-1.696;2022-11-15T11:49:26;11.75;;;3.40;;
17173;SDS011;8702;48.130;-1.696;2022-11-15T11:52:00;11.13;;;3.30;;
17173;SDS011;8702;48.130;-1.696;2022-11-15T11:54:42;14.68;;;3.72;;
17173;SDS011;8702;48.130;-1.696;2022-11-15T11:57:16;12.10;;;3.60;;
17173;SDS011;8702;48.130;-1.696;2022-11-15T11:59:49;11.10;;;3.17;;
17173;SDS011;8702;48.130;-1.696;2022-11-15T12:02:24;14.23;;;3.50;;
17173;SDS011;8702;48.130;-1.696;2022-11-15T12:04:59;13.32;;;3.40;;
17173;SDS011;8702;48.130;-1.696;2022-11-15T12:07:30;13.65;;;3.47;;
17173;SDS011;8702;48.130;-1.696;2022-11-15T12:09:59;11.55;;;3.03;;
17173;SDS011;8702;48.130;-1.696;2022-11-15T12:12:30;14.40;;;3.08;;
17173;SDS011;8702;48.130;-1.696;2022-11-15T12:15:00;10.05;;;2.90;;
17173;SDS011;8702;48.130;-1.696;2022-11-15T12:17:30;9.65;;;2.63;;
17173;SDS011;8702;48.130;-1.696;2022-11-15T12:19:58;11.52;;;3.22;;
17173;SDS011;8702;48.130;-1.696;2022-11-15T12:22:32;12.75;;;3.10;;
17173;SDS011;8702;48.130;-1.696;2022-11-15T12:25:04;9.52;;;2.47;;
17173;SDS011;8702;48.130;-1.696;2022-11-15T12:27:41;10.18;;;2.90;;
17173;SDS011;8702;48.130;-1.696;2022-11-15T12:30:12;9.77;;;2.80;;
17173;SDS011;8702;48.130;-1.696;2022-11-15T12:32:50;11.05;;;3.05;;
17173;SDS011;8702;48.130;-1.696;2022-11-15T12:35:23;14.98;;;3.05;;
17173;SDS011;8702;48.130;-1.696;2022-11-15T12:37:52;11.50;;;3.03;;
17173;SDS011;8702;48.130;-1.696;2022-11-15T12:40:22;9.60;;;2.75;;
17173;SDS011;8702;48.130;-1.696;2022-11-15T12:43:04;8.63;;;2.80;;
17173;SDS011;8702;48.130;-1.696;2022-11-15T12:45:52;13.33;;;2.97;;
17173;SDS011;8702;48.130;-1.696;2022-11-15T12:51:05;10.15;;;2.75;;
17173;SDS011;8702;48.130;-1.696;2022-11-15T12:53:33;10.27;;;2.60;;
17173;SDS011;8702;48.130;-1.696;2022-11-15T12:56:09;12.38;;;3.00;;
17173;SDS011;8702;48.130;-1.696;2022-11-15T12:58:47;13.05;;;3.05;;
17173;SDS011;8702;48.130;-1.696;2022-11-15T13:04:21;11.48;;;2.70;;
17173;SDS011;8702;48.130;-1.696;2022-11-15T13:06:52;11.70;;;3.03;;
17173;SDS011;8702;48.130;-1.696;2022-11-15T13:12:08;9.70;;;2.70;;
17173;SDS011;8702;48.130;-1.696;2022-11-15T13:14:42;8.15;;;2.38;;
17173;SDS011;8702;48.130;-1.696;2022-11-15T13:17:17;8.20;;;2.50;;
17173;SDS011;8702;48.130;-1.696;2022-11-15T13:19:49;9.18;;;2.40;;
17173;SDS011;8702;48.130;-1.696;2022-11-15T13:22:21;9.02;;;2.42;;
17173;SDS011;8702;48.130;-1.696;2022-11-15T13:25:15;9.60;;;2.33;;
17173;SDS011;8702;48.130;-1.696;2022-11-15T13:27:46;9.05;;;2.33;;
17173;SDS011;8702;48.130;-1.696;2022-11-15T13:30:16;8.10;;;2.50;;
17173;SDS011;8702;48.130;-1.696;2022-11-15T13:32:51;9.10;;;2.38;;
17173;SDS011;8702;48.130;-1.696;2022-11-15T13:35:23;7.00;;;2.10;;
17173;SDS011;8702;48.130;-1.696;2022-11-15T13:37:54;8.57;;;2.13;;
17173;SDS011;8702;48.130;-1.696;2022-11-15T13:40:24;9.40;;;2.20;;
17173;SDS011;8702;48.130;-1.696;2022-11-15T13:42:52;12.27;;;2.65;;
17173;SDS011;8702;48.130;-1.696;2022-11-15T13:45:19;9.38;;;2.60;;
17173;SDS011;8702;48.130;-1.696;2022-11-15T13:47:56;8.70;;;2.10;;
17173;SDS011;8702;48.130;-1.696;2022-11-15T13:50:26;8.98;;;2.30;;
17173;SDS011;8702;48.130;-1.696;2022-11-15T13:52:57;7.95;;;2.58;;
17173;SDS011;8702;48.130;-1.696;2022-11-15T13:55:27;10.55;;;2.38;;
17173;SDS011;8702;48.130;-1.696;2022-11-15T13:57:58;10.35;;;2.58;;
17173;SDS011;8702;48.130;-1.696;2022-11-15T14:00:33;11.45;;;2.70;;
17173;SDS011;8702;48.130;-1.696;2022-11-15T14:03:05;12.13;;;2.95;;
17173;SDS011;8702;48.130;-1.696;2022-11-15T14:05:33;8.10;;;2.40;;
17173;SDS011;8702;48.130;-1.696;2022-11-15T14:08:02;11.07;;;2.70;;
17173;SDS011;8702;48.130;-1.696;2022-11-15T14:10:31;10.38;;;2.25;;
17173;SDS011;8702;48.130;-1.696;2022-11-15T14:12:59;7.85;;;2.17;;
17173;SDS011;8702;48.130;-1.696;2022-11-15T14:15:28;6.25;;;1.95;;
17173;SDS011;8702;48.130;-1.696;2022-11-15T14:17:57;6.22;;;1.70;;
17173;SDS011;8702;48.130;-1.696;2022-11-15T14:20:28;7.78;;;1.92;;
17173;SDS011;8702;48.130;-1.696;2022-11-15T14:22:58;4.25;;;1.60;;
17173;SDS011;8702;48.130;-1.696;2022-11-15T14:25:27;5.97;;;1.87;;
17173;SDS011;8702;48.130;-1.696;2022-11-15T14:28:15;4.82;;;1.50;;
17173;SDS011;8702;48.130;-1.696;2022-11-15T14:30:43;5.87;;;1.70;;
17173;SDS011;8702;48.130;-1.696;2022-11-15T14:33:18;5.82;;;1.60;;
17173;SDS011;8702;48.130;-1.696;2022-11-15T14:35:47;8.25;;;1.90;;
17173;SDS011;8702;48.130;-1.696;2022-11-15T14:38:15;5.63;;;1.90;;
17173;SDS011;8702;48.130;-1.696;2022-11-15T14:40:44;7.40;;;1.92;;
17173;SDS011;8702;48.130;-1.696;2022-11-15T14:43:11;8.77;;;2.13;;
17173;SDS011;8702;48.130;-1.696;2022-11-15T14:45:38;10.93;;;2.25;;
17173;SDS011;8702;48.130;-1.696;2022-11-15T14:48:06;8.35;;;1.92;;
17173;SDS011;8702;48.130;-1.696;2022-11-15T14:50:33;5.78;;;1.95;;
17173;SDS011;8702;48.130;-1.696;2022-11-15T14:53:01;8.77;;;2.30;;
17173;SDS011;8702;48.130;-1.696;2022-11-15T14:55:29;9.68;;;2.50;;
17173;SDS011;8702;48.130;-1.696;2022-11-15T14:58:00;10.45;;;2.33;;
17173;SDS011;8702;48.130;-1.696;2022-11-15T15:00:28;7.68;;;2.03;;
17173;SDS011;8702;48.130;-1.696;2022-11-15T15:02:56;6.00;;;1.92;;
17173;SDS011;8702;48.130;-1.696;2022-11-15T15:05:24;6.35;;;1.83;;
17173;SDS011;8702;48.130;-1.696;2022-11-15T15:07:54;7.43;;;1.98;;
17173;SDS011;8702;48.130;-1.696;2022-11-15T15:10:21;6.53;;;1.77;;
17173;SDS011;8702;48.130;-1.696;2022-11-15T15:12:49;7.35;;;1.60;;
17173;SDS011;8702;48.130;-1.696;2022-11-15T15:15:20;4.68;;;1.77;;
17173;SDS011;8702;48.130;-1.696;2022-11-15T15:17:51;5.60;;;1.77;;
17173;SDS011;8702;48.130;-1.696;2022-11-15T15:20:18;3.65;;;1.38;;